Terminal Aerodrome Forecast
Issued by NWS

Home | Current Version | Previous Version | Text Only | Print | Product List | Glossary On
Versions: 1 2 3 4 5 6 7 8 9 10 11 12 13 14 15 16 17 18 19 20
000
FTUS41 KPBZ 020500
TAFAGC
TAF
KAGC 020520Z 0206/0306 17006KT P6SM SKC
     FM021200 18008KT P6SM BKN100 WS020/20040KT
     FM021800 20012G22KT P6SM -SHRA OVC035
     FM022200 21015G25KT 4SM -SHRA OVC025
     FM030000 21010G20KT 3SM RA OVC015
     FM030400 23006KT 2SM RA BR OVC008=

USA.gov is the U.S. government's official web portal to all federal, state and local government web resources and services.